Time;durP1;ratioP1;P1;durP2;ratioP2;P2;SDS_P1;SDS_P2;PMS_P1;PMS_P2;Temp;Humidity;BMP_temperature;BMP_pressure;BME280_temperature;BME280_humidity;BME280_pressure;Samples;Min_cycle;Max_cycle;Signal;HPM_P1;HPM_P2
2022/10/25 00:01:19;;;;;;;37.65;15.77;;;;;;;;;;5021534;28;20108;-73
2022/10/25 00:03:45;;;;;;;31.58;14.48;;;;;;;;;;5018925;28;20053;-73
2022/10/25 00:06:11;;;;;;;31.77;14.02;;;;;;;;;;5028207;28;20050;-75
2022/10/25 00:08:38;;;;;;;42.05;14.48;;;;;;;;;;5024565;28;20156;-73
2022/10/25 00:11:04;;;;;;;28.00;13.50;;;;;;;;;;5021326;28;20021;-74
2022/10/25 00:13:30;;;;;;;26.42;13.70;;;;;;;;;;5025642;28;20021;-74
2022/10/25 00:15:56;;;;;;;30.65;13.60;;;;;;;;;;5018336;28;20026;-75
2022/10/25 00:18:22;;;;;;;30.70;13.13;;;;;;;;;;5019496;28;20163;-73
2022/10/25 00:20:49;;;;;;;30.10;12.88;;;;;;;;;;5029299;28;20522;-74
2022/10/25 00:23:15;;;;;;;31.42;13.30;;;;;;;;;;5014151;28;20022;-74
2022/10/25 00:25:41;;;;;;;38.10;14.10;;;;;;;;;;5020520;28;20029;-74
2022/10/25 00:28:07;;;;;;;28.00;12.57;;;;;;;;;;5029506;28;20061;-74
2022/10/25 00:30:33;;;;;;;30.80;14.35;;;;;;;;;;5022205;28;20045;-74
2022/10/25 00:33:00;;;;;;;33.53;15.15;;;;;;;;;;5017646;28;20394;-74
2022/10/25 00:35:26;;;;;;;27.10;14.95;;;;;;;;;;5024842;28;20048;-73
2022/10/25 00:37:52;;;;;;;29.27;15.57;;;;;;;;;;5018393;28;20387;-73
2022/10/25 00:40:18;;;;;;;34.15;15.75;;;;;;;;;;5019845;28;20040;-74
2022/10/25 00:42:44;;;;;;;26.75;15.63;;;;;;;;;;5019660;28;20018;-74
2022/10/25 00:45:13;;;;;;;31.95;14.30;;;;;;;;;;5026171;28;20104;-73
2022/10/25 00:47:39;;;;;;;32.63;15.25;;;;;;;;;;5020399;28;20395;-73
2022/10/25 00:50:21;;;;;;;26.05;14.52;;;;;;;;;;5027245;28;20533;-72
2022/10/25 00:52:48;;;;;;;41.38;15.60;;;;;;;;;;5027289;28;20104;-74
2022/10/25 00:55:16;;;;;;;34.30;15.63;;;;;;;;;;5026138;28;20052;-74
2022/10/25 00:57:46;;;;;;;30.40;15.55;;;;;;;;;;5023703;28;20068;-74
2022/10/25 01:00:13;;;;;;;28.48;14.85;;;;;;;;;;5031305;28;20034;-74
2022/10/25 01:02:39;;;;;;;32.33;15.18;;;;;;;;;;5022470;28;20084;-73
2022/10/25 01:05:05;;;;;;;24.58;14.55;;;;;;;;;;5016108;28;20426;-74
2022/10/25 01:07:31;;;;;;;28.85;14.90;;;;;;;;;;5021850;28;20041;-74
2022/10/25 01:09:57;;;;;;;30.63;15.35;;;;;;;;;;5024699;28;20483;-74
2022/10/25 01:12:23;;;;;;;38.45;14.82;;;;;;;;;;5026255;28;20357;-74
2022/10/25 01:14:50;;;;;;;30.70;15.55;;;;;;;;;;5023449;28;20033;-74
2022/10/25 01:17:23;;;;;;;32.03;15.38;;;;;;;;;;5025899;28;20018;-74
2022/10/25 01:20:08;;;;;;;25.60;14.80;;;;;;;;;;5020899;28;20029;-74
2022/10/25 01:22:36;;;;;;;33.90;14.80;;;;;;;;;;5019046;28;20087;-74
2022/10/25 01:25:09;;;;;;;39.10;14.13;;;;;;;;;;5018811;28;20018;-73
2022/10/25 01:27:53;;;;;;;32.60;14.13;;;;;;;;;;5027818;28;20025;-74
2022/10/25 01:30:21;;;;;;;31.88;14.73;;;;;;;;;;5019650;28;20128;-75
2022/10/25 01:33:10;;;;;;;28.13;15.60;;;;;;;;;;5019170;28;20030;-74
2022/10/25 01:35:36;;;;;;;46.30;16.35;;;;;;;;;;5022985;28;20060;-74
2022/10/25 01:38:02;;;;;;;36.55;15.88;;;;;;;;;;5026919;28;20079;-74
2022/10/25 01:40:33;;;;;;;33.78;15.50;;;;;;;;;;5025630;28;20037;-73
2022/10/25 01:43:02;;;;;;;29.90;15.10;;;;;;;;;;5027976;28;20128;-74
2022/10/25 01:45:35;;;;;;;27.45;14.93;;;;;;;;;;5030245;28;20084;-74
2022/10/25 01:48:13;;;;;;;28.50;14.52;;;;;;;;;;5028498;28;20030;-74
2022/10/25 01:50:40;;;;;;;33.70;14.93;;;;;;;;;;5025199;28;20033;-74
2022/10/25 01:53:07;;;;;;;32.47;15.25;;;;;;;;;;5023785;28;20040;-74
2022/10/25 01:55:36;;;;;;;30.98;13.43;;;;;;;;;;5020736;28;20384;-74
2022/10/25 01:58:02;;;;;;;28.25;12.77;;;;;;;;;;5031872;28;20053;-74
2022/10/25 02:00:30;;;;;;;33.28;14.23;;;;;;;;;;5025162;28;20037;-74
2022/10/25 02:03:18;;;;;;;30.90;12.77;;;;;;;;;;5022328;28;20492;-73
2022/10/25 02:06:03;;;;;;;30.10;12.73;;;;;;;;;;5022893;28;20022;-74
2022/10/25 02:08:41;;;;;;;31.58;12.05;;;;;;;;;;5026588;28;20052;-73
2022/10/25 02:11:17;;;;;;;30.85;12.82;;;;;;;;;;5027541;28;20033;-74
2022/10/25 02:13:43;;;;;;;32.50;12.93;;;;;;;;;;5025970;28;20033;-73
2022/10/25 02:16:16;;;;;;;29.00;13.10;;;;;;;;;;5026436;28;20029;-73
2022/10/25 02:18:44;;;;;;;32.00;13.13;;;;;;;;;;5024318;28;20017;-73
2022/10/25 02:21:11;;;;;;;37.40;13.48;;;;;;;;;;5026009;28;20029;-74
2022/10/25 02:23:39;;;;;;;30.80;13.00;;;;;;;;;;5026905;28;20145;-73
2022/10/25 02:26:06;;;;;;;29.20;13.57;;;;;;;;;;5023078;28;20104;-74
2022/10/25 02:28:33;;;;;;;23.90;11.38;;;;;;;;;;5032297;28;20030;-74
2022/10/25 02:31:00;;;;;;;30.15;12.00;;;;;;;;;;5028496;28;20582;-73
2022/10/25 02:33:26;;;;;;;23.48;12.13;;;;;;;;;;5030592;28;20033;-74
2022/10/25 02:36:05;;;;;;;27.55;12.32;;;;;;;;;;5026641;28;20029;-73
2022/10/25 02:38:31;;;;;;;27.85;12.82;;;;;;;;;;5023013;28;20506;-74
2022/10/25 02:40:58;;;;;;;27.70;12.43;;;;;;;;;;5021793;28;20018;-74
2022/10/25 02:43:24;;;;;;;29.50;12.50;;;;;;;;;;5021975;28;20114;-74
2022/10/25 02:45:50;;;;;;;25.75;11.75;;;;;;;;;;5021806;28;20022;-73
2022/10/25 02:48:16;;;;;;;23.02;11.98;;;;;;;;;;5027975;28;20053;-74
2022/10/25 02:50:42;;;;;;;23.55;12.07;;;;;;;;;;5029953;28;20071;-74
2022/10/25 02:53:08;;;;;;;24.02;11.82;;;;;;;;;;5025234;28;20025;-74
2022/10/25 02:55:34;;;;;;;26.70;12.55;;;;;;;;;;5023260;28;20379;-74
2022/10/25 02:58:00;;;;;;;26.05;11.93;;;;;;;;;;5025110;28;20453;-74
2022/10/25 03:00:28;;;;;;;19.55;10.65;;;;;;;;;;5026569;28;20395;-74
2022/10/25 03:02:54;;;;;;;22.10;10.77;;;;;;;;;;5026722;28;20018;-73
2022/10/25 03:05:20;;;;;;;26.38;10.85;;;;;;;;;;5025052;28;20446;-73
2022/10/25 03:07:46;;;;;;;27.05;12.02;;;;;;;;;;5025195;28;20026;-73
2022/10/25 03:10:12;;;;;;;23.08;11.80;;;;;;;;;;5031562;28;20030;-74
2022/10/25 03:12:38;;;;;;;23.58;11.27;;;;;;;;;;5022767;28;21779;-74
2022/10/25 03:15:05;;;;;;;22.95;11.60;;;;;;;;;;5023118;28;20431;-74
2022/10/25 03:17:31;;;;;;;18.95;11.30;;;;;;;;;;5031308;28;20073;-73
2022/10/25 03:19:57;;;;;;;21.02;10.70;;;;;;;;;;5023149;28;20018;-74
2022/10/25 03:22:23;;;;;;;19.65;10.90;;;;;;;;;;5028613;28;20026;-74
2022/10/25 03:24:49;;;;;;;23.83;10.25;;;;;;;;;;5022521;28;20033;-74
2022/10/25 03:27:16;;;;;;;20.17;11.00;;;;;;;;;;5017631;28;20076;-74
2022/10/25 03:29:43;;;;;;;24.08;11.38;;;;;;;;;;5032076;28;20044;-73
2022/10/25 03:32:09;;;;;;;21.95;10.30;;;;;;;;;;5020788;28;20025;-74
2022/10/25 03:34:35;;;;;;;20.52;10.68;;;;;;;;;;5023853;28;20038;-73
2022/10/25 03:37:01;;;;;;;25.42;11.35;;;;;;;;;;5018085;28;20056;-74
2022/10/25 03:39:27;;;;;;;27.00;11.68;;;;;;;;;;5020140;28;20025;-74
2022/10/25 03:41:53;;;;;;;19.23;11.43;;;;;;;;;;5028576;28;20024;-74
2022/10/25 03:44:19;;;;;;;20.38;12.30;;;;;;;;;;5027434;28;20116;-73
2022/10/25 03:46:45;;;;;;;23.52;12.13;;;;;;;;;;5029662;28;20116;-74
2022/10/25 03:49:11;;;;;;;22.10;12.65;;;;;;;;;;5020779;28;20091;-74
2022/10/25 03:51:37;;;;;;;22.65;13.30;;;;;;;;;;5022109;28;20028;-73
2022/10/25 03:54:03;;;;;;;24.25;12.98;;;;;;;;;;5028692;28;20021;-74
2022/10/25 03:56:29;;;;;;;24.02;13.20;;;;;;;;;;5024730;28;20026;-74
2022/10/25 03:58:55;;;;;;;23.65;13.13;;;;;;;;;;5023494;28;20041;-74
2022/10/25 04:01:21;;;;;;;23.15;13.52;;;;;;;;;;5028252;28;20064;-74
2022/10/25 04:03:48;;;;;;;24.15;13.65;;;;;;;;;;5024670;28;20101;-74
2022/10/25 04:06:14;;;;;;;28.60;14.45;;;;;;;;;;5021143;28;20051;-75
2022/10/25 04:08:40;;;;;;;21.10;13.65;;;;;;;;;;5021694;28;20135;-74
2022/10/25 04:11:06;;;;;;;26.85;14.65;;;;;;;;;;5027826;28;20083;-72
2022/10/25 04:13:32;;;;;;;27.73;15.05;;;;;;;;;;5021299;28;20022;-74
2022/10/25 04:15:58;;;;;;;28.77;15.05;;;;;;;;;;5027651;28;20155;-73
2022/10/25 04:18:24;;;;;;;23.85;14.15;;;;;;;;;;5022522;28;20475;-74
2022/10/25 04:20:50;;;;;;;22.73;14.55;;;;;;;;;;5020685;28;20101;-75
2022/10/25 04:23:16;;;;;;;25.92;15.10;;;;;;;;;;5025321;28;20041;-75
2022/10/25 04:25:43;;;;;;;24.33;15.35;;;;;;;;;;5032982;28;20052;-74
2022/10/25 04:28:09;;;;;;;26.25;14.85;;;;;;;;;;5027915;28;20036;-74
2022/10/25 04:30:35;;;;;;;25.88;15.13;;;;;;;;;;5019764;28;20065;-74
2022/10/25 04:33:01;;;;;;;25.33;15.40;;;;;;;;;;5016798;28;20026;-75
2022/10/25 04:35:27;;;;;;;30.45;14.90;;;;;;;;;;5024842;28;20029;-74
2022/10/25 04:37:56;;;;;;;31.77;15.10;;;;;;;;;;5027390;28;20503;-74
2022/10/25 04:40:22;;;;;;;22.95;14.80;;;;;;;;;;5029942;28;20083;-74
2022/10/25 04:42:48;;;;;;;22.63;14.63;;;;;;;;;;5025741;28;20029;-73
2022/10/25 04:45:14;;;;;;;25.73;15.68;;;;;;;;;;5026409;28;20026;-73
2022/10/25 04:47:40;;;;;;;24.38;15.48;;;;;;;;;;5019909;28;20037;-75
2022/10/25 04:50:06;;;;;;;25.23;16.25;;;;;;;;;;5029107;28;20052;-77
2022/10/25 04:52:32;;;;;;;24.92;15.10;;;;;;;;;;5024388;28;20060;-74
2022/10/25 04:54:58;;;;;;;21.38;13.65;;;;;;;;;;5024363;28;20455;-73
2022/10/25 04:57:25;;;;;;;27.33;14.73;;;;;;;;;;5026897;28;20060;-73
2022/10/25 04:59:51;;;;;;;32.38;15.13;;;;;;;;;;5024865;28;20072;-73
2022/10/25 05:02:17;;;;;;;27.67;16.42;;;;;;;;;;5023231;28;20106;-73
2022/10/25 05:04:43;;;;;;;22.38;15.27;;;;;;;;;;5020793;28;20025;-73
2022/10/25 05:07:09;;;;;;;28.13;15.63;;;;;;;;;;5032073;28;20537;-74
2022/10/25 05:09:35;;;;;;;27.58;15.45;;;;;;;;;;5024286;28;20065;-74
2022/10/25 05:12:01;;;;;;;29.63;17.13;;;;;;;;;;5020420;28;20029;-75
2022/10/25 05:14:27;;;;;;;25.70;15.85;;;;;;;;;;5021329;28;20021;-74
2022/10/25 05:16:54;;;;;;;24.77;15.57;;;;;;;;;;5025569;28;20142;-75
2022/10/25 05:19:20;;;;;;;24.60;15.80;;;;;;;;;;5033274;28;20037;-73
2022/10/25 05:21:46;;;;;;;26.42;15.02;;;;;;;;;;5030748;28;20022;-73
2022/10/25 05:24:12;;;;;;;29.70;16.35;;;;;;;;;;5024198;28;20036;-74
2022/10/25 05:26:38;;;;;;;28.60;15.15;;;;;;;;;;5022714;28;20038;-75
2022/10/25 05:29:04;;;;;;;28.60;16.33;;;;;;;;;;5025723;28;20052;-74
2022/10/25 05:31:30;;;;;;;24.77;15.38;;;;;;;;;;5031444;28;20030;-73
2022/10/25 05:34:00;;;;;;;30.52;16.05;;;;;;;;;;5024980;28;20431;-74
2022/10/25 05:36:31;;;;;;;25.42;15.00;;;;;;;;;;5018773;28;20452;-73
2022/10/25 05:38:58;;;;;;;35.25;15.60;;;;;;;;;;5028175;28;20044;-73
2022/10/25 05:41:24;;;;;;;25.02;14.90;;;;;;;;;;5024069;28;20053;-73
2022/10/25 05:43:51;;;;;;;31.65;14.88;;;;;;;;;;5027357;28;20060;-74
2022/10/25 05:46:22;;;;;;;27.42;16.08;;;;;;;;;;5023965;28;20474;-75
2022/10/25 05:48:49;;;;;;;23.45;15.85;;;;;;;;;;5017880;28;20040;-74
2022/10/25 05:51:29;;;;;;;25.02;16.20;;;;;;;;;;5030324;28;20029;-77
2022/10/25 05:54:02;;;;;;;26.70;16.63;;;;;;;;;;5028167;28;20021;-74
2022/10/25 05:56:50;;;;;;;24.87;15.30;;;;;;;;;;5034643;28;20497;-78
2022/10/25 05:59:29;;;;;;;21.65;13.88;;;;;;;;;;5035151;28;20099;-76
2022/10/25 06:01:55;;;;;;;33.13;14.38;;;;;;;;;;5037688;28;20031;-75
2022/10/25 06:04:26;;;;;;;21.65;14.05;;;;;;;;;;5026663;28;20034;-76
2022/10/25 06:06:56;;;;;;;31.45;14.60;;;;;;;;;;5028315;28;20075;-76
2022/10/25 06:09:22;;;;;;;23.58;13.50;;;;;;;;;;5030412;28;20061;-76
2022/10/25 06:11:49;;;;;;;26.35;11.98;;;;;;;;;;5031289;28;20032;-75
2022/10/25 06:14:15;;;;;;;23.00;11.40;;;;;;;;;;5029774;28;20037;-76
2022/10/25 06:16:41;;;;;;;26.40;16.75;;;;;;;;;;5032136;28;20078;-76
2022/10/25 06:19:07;;;;;;;26.80;15.73;;;;;;;;;;5025941;28;20493;-75
2022/10/25 06:21:33;;;;;;;19.50;10.43;;;;;;;;;;5022465;28;20026;-75
2022/10/25 06:23:59;;;;;;;20.40;11.75;;;;;;;;;;5030519;28;20033;-75
2022/10/25 06:26:26;;;;;;;22.27;12.43;;;;;;;;;;5026450;28;20049;-75
2022/10/25 06:28:57;;;;;;;27.17;12.32;;;;;;;;;;5024082;28;20037;-76
2022/10/25 06:31:23;;;;;;;20.95;13.52;;;;;;;;;;5024721;28;20029;-75
2022/10/25 06:33:50;;;;;;;22.83;14.48;;;;;;;;;;5029456;28;20136;-76
2022/10/25 06:36:17;;;;;;;19.40;12.90;;;;;;;;;;5036050;28;20032;-76
2022/10/25 06:38:44;;;;;;;22.70;11.73;;;;;;;;;;5029539;28;20025;-75
2022/10/25 06:41:12;;;;;;;23.52;14.05;;;;;;;;;;5028918;28;20045;-75
2022/10/25 06:43:38;;;;;;;22.33;12.82;;;;;;;;;;5026544;28;20541;-75
2022/10/25 06:46:08;;;;;;;26.10;14.13;;;;;;;;;;5031691;28;20374;-75
2022/10/25 06:48:34;;;;;;;21.60;13.18;;;;;;;;;;5022554;28;20033;-75
2022/10/25 06:51:03;;;;;;;16.75;10.73;;;;;;;;;;5034985;28;20041;-75
2022/10/25 06:53:30;;;;;;;20.35;10.57;;;;;;;;;;5032978;28;20030;-75
2022/10/25 06:56:02;;;;;;;17.25;9.00;;;;;;;;;;5030188;28;20033;-75
2022/10/25 06:58:30;;;;;;;15.32;8.98;;;;;;;;;;5029810;28;20050;-74
2022/10/25 07:01:00;;;;;;;13.95;9.02;;;;;;;;;;5027672;28;20113;-75
2022/10/25 07:03:29;;;;;;;15.95;9.23;;;;;;;;;;5027261;28;20501;-75
2022/10/25 07:05:58;;;;;;;15.25;8.65;;;;;;;;;;5025664;28;20072;-75
2022/10/25 07:08:25;;;;;;;12.05;7.57;;;;;;;;;;5026878;28;20037;-75
2022/10/25 07:10:55;;;;;;;20.08;8.65;;;;;;;;;;5021173;28;20037;-75
2022/10/25 07:13:21;;;;;;;16.13;7.95;;;;;;;;;;5027741;28;20021;-74
2022/10/25 07:15:47;;;;;;;16.73;7.88;;;;;;;;;;5025645;28;20028;-76
2022/10/25 07:18:13;;;;;;;13.05;7.70;;;;;;;;;;5020736;28;20037;-74
2022/10/25 07:20:39;;;;;;;15.68;8.23;;;;;;;;;;5031484;28;20116;-75
2022/10/25 07:23:05;;;;;;;15.65;8.95;;;;;;;;;;5026689;28;20022;-75
2022/10/25 07:25:31;;;;;;;16.70;8.15;;;;;;;;;;5022663;28;20022;-75
2022/10/25 07:27:58;;;;;;;20.40;12.25;;;;;;;;;;5032528;28;20021;-75
2022/10/25 07:30:24;;;;;;;13.95;7.65;;;;;;;;;;5026536;28;20073;-75
2022/10/25 07:32:50;;;;;;;12.27;7.82;;;;;;;;;;5016068;28;20022;-75
2022/10/25 07:35:16;;;;;;;13.98;8.18;;;;;;;;;;5023780;28;20608;-75
2022/10/25 07:37:42;;;;;;;19.30;9.82;;;;;;;;;;5020285;28;20479;-75
2022/10/25 07:40:08;;;;;;;18.55;9.05;;;;;;;;;;5022508;28;20021;-75
2022/10/25 07:42:36;;;;;;;18.73;9.07;;;;;;;;;;5027343;28;21656;-78
2022/10/25 07:45:02;;;;;;;17.05;10.07;;;;;;;;;;5024244;28;20026;-75
2022/10/25 07:47:28;;;;;;;17.92;9.85;;;;;;;;;;5019912;28;20521;-76
2022/10/25 07:49:56;;;;;;;15.32;10.15;;;;;;;;;;5016853;28;20037;-76
2022/10/25 07:52:22;;;;;;;15.68;9.82;;;;;;;;;;5021737;28;21812;-76
2022/10/25 07:54:48;;;;;;;15.73;8.63;;;;;;;;;;5026249;28;20030;-74
2022/10/25 07:57:14;;;;;;;12.02;8.23;;;;;;;;;;5026138;28;20025;-75
2022/10/25 07:59:40;;;;;;;11.63;7.90;;;;;;;;;;5028343;28;20045;-75
2022/10/25 08:02:08;;;;;;;12.65;8.27;;;;;;;;;;5025981;28;20045;-74
2022/10/25 08:07:06;;;;;;;19.98;9.65;;;;;;;;;;3317336;23;20048;-75
2022/10/25 08:09:32;;;;;;;17.20;9.77;;;;;;;;;;5066216;28;20119;-74
2022/10/25 08:11:58;;;;;;;21.10;10.10;;;;;;;;;;5073022;28;20028;-77
2022/10/25 08:14:24;;;;;;;19.00;10.07;;;;;;;;;;5071209;28;20393;-73
2022/10/25 08:16:50;;;;;;;14.93;9.63;;;;;;;;;;5056477;28;20447;-73
2022/10/25 08:19:16;;;;;;;15.35;9.50;;;;;;;;;;5087659;28;20114;-74
2022/10/25 08:21:42;;;;;;;14.50;9.88;;;;;;;;;;5089720;28;20012;-77
2022/10/25 08:24:09;;;;;;;17.25;9.55;;;;;;;;;;5072474;28;20070;-76
2022/10/25 08:26:35;;;;;;;16.67;9.32;;;;;;;;;;5073513;28;20036;-73
2022/10/25 08:29:01;;;;;;;11.32;8.38;;;;;;;;;;5085269;28;20066;-76
2022/10/25 08:31:27;;;;;;;16.63;8.50;;;;;;;;;;5072737;28;20085;-75
2022/10/25 08:33:53;;;;;;;12.00;7.97;;;;;;;;;;5077090;28;20027;-75
2022/10/25 08:36:19;;;;;;;12.80;7.82;;;;;;;;;;5091059;28;20127;-74
2022/10/25 08:38:46;;;;;;;15.95;8.25;;;;;;;;;;5088554;28;20024;-74
2022/10/25 08:41:15;;;;;;;12.02;8.18;;;;;;;;;;5089172;28;20385;-73
2022/10/25 08:43:41;;;;;;;14.18;7.30;;;;;;;;;;5087734;28;20027;-75
2022/10/25 08:46:12;;;;;;;12.63;7.50;;;;;;;;;;5085190;28;20024;-75
2022/10/25 08:48:42;;;;;;;25.88;7.70;;;;;;;;;;5081097;28;20391;-76
2022/10/25 08:51:19;;;;;;;12.40;7.47;;;;;;;;;;5071312;28;20031;-75
2022/10/25 08:53:47;;;;;;;9.25;6.60;;;;;;;;;;5086844;28;20049;-76
2022/10/25 08:56:16;;;;;;;12.73;7.10;;;;;;;;;;5090161;28;20024;-77
2022/10/25 08:58:54;;;;;;;16.55;7.03;;;;;;;;;;5090875;28;20027;-75
2022/10/25 09:01:43;;;;;;;14.80;7.47;;;;;;;;;;5083489;28;20093;-75
2022/10/25 09:04:09;;;;;;;12.35;7.68;;;;;;;;;;5086893;28;20156;-76
2022/10/25 09:06:46;;;;;;;15.20;7.70;;;;;;;;;;5081427;28;20055;-76
2022/10/25 09:09:24;;;;;;;14.55;7.47;;;;;;;;;;5056079;28;20038;-76
2022/10/25 09:12:08;;;;;;;18.45;7.97;;;;;;;;;;5071357;28;20035;-76
2022/10/25 09:14:43;;;;;;;10.10;7.25;;;;;;;;;;5064176;28;20048;-76
2022/10/25 09:17:09;;;;;;;15.50;7.65;;;;;;;;;;5068077;28;20029;-76
2022/10/25 09:19:38;;;;;;;11.27;7.38;;;;;;;;;;5070893;28;20033;-76
2022/10/25 09:22:23;;;;;;;14.48;6.85;;;;;;;;;;5070571;28;20028;-75
2022/10/25 09:24:57;;;;;;;16.42;8.90;;;;;;;;;;5067827;28;20064;-76
2022/10/25 09:27:33;;;;;;;16.55;8.43;;;;;;;;;;5069927;28;20036;-76
2022/10/25 09:30:01;;;;;;;9.73;6.45;;;;;;;;;;5072261;28;20115;-76
2022/10/25 09:32:36;;;;;;;16.13;8.30;;;;;;;;;;5047950;28;20035;-75
2022/10/25 09:35:03;;;;;;;11.40;7.30;;;;;;;;;;5045782;28;20029;-76
2022/10/25 09:37:55;;;;;;;9.13;6.03;;;;;;;;;;5062944;28;20048;-75
2022/10/25 09:40:23;;;;;;;13.57;6.65;;;;;;;;;;5031264;28;20090;-75
2022/10/25 09:43:07;;;;;;;10.70;6.00;;;;;;;;;;5068742;28;20033;-76
2022/10/25 09:45:45;;;;;;;15.57;8.68;;;;;;;;;;5063662;28;20074;-76
2022/10/25 09:48:16;;;;;;;14.25;7.78;;;;;;;;;;5064209;28;20450;-76
2022/10/25 09:50:48;;;;;;;12.75;6.82;;;;;;;;;;5064660;28;20031;-76
2022/10/25 09:53:19;;;;;;;18.48;6.85;;;;;;;;;;5064696;28;20033;-75
2022/10/25 09:55:52;;;;;;;12.57;6.13;;;;;;;;;;5065246;28;20501;-75
2022/10/25 09:58:23;;;;;;;7.25;5.07;;;;;;;;;;5069357;28;20037;-75
2022/10/25 10:00:50;;;;;;;9.68;5.53;;;;;;;;;;5051621;28;20055;-76
2022/10/25 10:03:16;;;;;;;18.02;8.27;;;;;;;;;;5069081;28;20020;-75
2022/10/25 10:06:06;;;;;;;8.95;5.07;;;;;;;;;;5071712;28;20032;-76
2022/10/25 10:08:33;;;;;;;8.07;5.18;;;;;;;;;;4988190;28;20058;-75
2022/10/25 10:11:00;;;;;;;9.00;5.32;;;;;;;;;;4991631;28;20035;-75
2022/10/25 10:13:31;;;;;;;9.82;5.78;;;;;;;;;;4990454;28;20038;-75
2022/10/25 10:16:01;;;;;;;8.55;5.28;;;;;;;;;;4987708;28;20082;-74
2022/10/25 10:18:29;;;;;;;10.60;6.10;;;;;;;;;;4988060;28;20026;-75
2022/10/25 10:20:57;;;;;;;11.38;5.72;;;;;;;;;;4973074;28;20058;-75
2022/10/25 10:23:24;;;;;;;10.52;5.38;;;;;;;;;;4991251;28;20073;-74
2022/10/25 10:25:50;;;;;;;7.65;5.78;;;;;;;;;;4991435;28;20034;-75
2022/10/25 10:28:16;;;;;;;10.80;6.20;;;;;;;;;;4996818;28;20050;-75
2022/10/25 10:30:51;;;;;;;9.05;5.22;;;;;;;;;;4983915;28;20030;-75
2022/10/25 10:33:17;;;;;;;13.52;6.68;;;;;;;;;;4974554;28;20041;-76
2022/10/25 10:35:43;;;;;;;9.77;5.57;;;;;;;;;;4985915;28;20018;-76
2022/10/25 10:38:15;;;;;;;10.05;5.43;;;;;;;;;;4974930;28;20043;-75
2022/10/25 10:40:41;;;;;;;12.95;6.00;;;;;;;;;;4992363;28;20432;-75
2022/10/25 10:43:28;;;;;;;10.40;5.63;;;;;;;;;;4981761;28;20026;-74
2022/10/25 10:45:57;;;;;;;11.70;6.20;;;;;;;;;;5039702;28;20055;-74
2022/10/25 10:48:23;;;;;;;11.45;6.10;;;;;;;;;;5067571;28;20036;-75
2022/10/25 10:50:50;;;;;;;11.48;7.03;;;;;;;;;;5078666;28;20028;-75
2022/10/25 10:53:30;;;;;;;13.20;6.32;;;;;;;;;;5060256;28;20037;-74
2022/10/25 10:55:57;;;;;;;13.70;6.95;;;;;;;;;;5067309;28;20037;-75
2022/10/25 10:58:30;;;;;;;13.60;6.80;;;;;;;;;;5069625;28;20466;-76
2022/10/25 11:00:59;;;;;;;9.50;5.32;;;;;;;;;;5070270;28;20401;-76
2022/10/25 11:03:40;;;;;;;11.68;5.18;;;;;;;;;;5066314;28;20028;-76
2022/10/25 11:06:17;;;;;;;8.30;4.80;;;;;;;;;;5068839;28;20680;-76
2022/10/25 11:08:44;;;;;;;10.18;4.90;;;;;;;;;;5060893;28;21252;-75
2022/10/25 11:11:33;;;;;;;9.52;4.85;;;;;;;;;;5063972;28;20111;-76
2022/10/25 11:14:00;;;;;;;10.38;4.10;;;;;;;;;;5015597;28;20508;-75
2022/10/25 11:16:30;;;;;;;6.00;3.83;;;;;;;;;;5066612;28;20532;-75
2022/10/25 11:18:59;;;;;;;7.00;3.92;;;;;;;;;;5062409;28;20791;-75
2022/10/25 11:24:23;;;;;;;6.18;3.53;;;;;;;;;;4983104;28;20054;-74
2022/10/25 11:26:53;;;;;;;6.78;3.80;;;;;;;;;;4978834;28;20404;-79
2022/10/25 11:29:30;;;;;;;5.50;3.63;;;;;;;;;;4984045;28;20049;-74
2022/10/25 11:31:59;;;;;;;8.43;3.30;;;;;;;;;;4983721;28;20097;-74
2022/10/25 11:34:28;;;;;;;7.18;3.30;;;;;;;;;;4986639;28;20494;-74
2022/10/25 11:39:27;;;;;;;6.15;3.65;;;;;;;;;;3540730;22;20050;-75
2022/10/25 11:41:58;;;;;;;6.93;3.50;;;;;;;;;;5004349;28;20475;-75
2022/10/25 11:44:38;;;;;;;8.27;3.70;;;;;;;;;;4983716;28;20453;-75
2022/10/25 11:47:09;;;;;;;8.85;3.70;;;;;;;;;;5005907;28;20033;-75
2022/10/25 11:49:45;;;;;;;5.53;3.25;;;;;;;;;;5004558;28;20420;-75
2022/10/25 11:52:23;;;;;;;8.40;3.60;;;;;;;;;;5014909;28;20364;-75
2022/10/25 11:54:57;;;;;;;6.72;3.53;;;;;;;;;;4997831;28;20026;-75
2022/10/25 11:57:24;;;;;;;7.53;3.85;;;;;;;;;;5008769;28;20029;-72
2022/10/25 12:00:08;;;;;;;7.38;3.58;;;;;;;;;;5011579;28;20025;-72
2022/10/25 12:02:50;;;;;;;7.50;3.53;;;;;;;;;;5010639;28;20037;-72
2022/10/25 12:05:37;;;;;;;5.38;3.63;;;;;;;;;;5011847;28;20029;-74
2022/10/25 12:08:06;;;;;;;7.10;3.30;;;;;;;;;;4991932;28;20037;-74
2022/10/25 12:10:32;;;;;;;5.38;3.20;;;;;;;;;;5013136;28;20029;-73
2022/10/25 12:13:01;;;;;;;7.90;3.22;;;;;;;;;;5013432;28;20037;-73
2022/10/25 12:15:34;;;;;;;10.25;3.50;;;;;;;;;;5014562;28;20030;-73
2022/10/25 12:18:03;;;;;;;10.88;3.72;;;;;;;;;;5004736;28;20033;-73
2022/10/25 12:20:30;;;;;;;8.05;3.65;;;;;;;;;;5018456;28;20025;-73
2022/10/25 12:23:01;;;;;;;6.75;3.50;;;;;;;;;;5009797;28;20343;-72
2022/10/25 12:25:33;;;;;;;5.38;3.20;;;;;;;;;;5022307;28;20030;-74
2022/10/25 12:28:04;;;;;;;6.03;3.88;;;;;;;;;;5012370;28;20088;-73
2022/10/25 12:30:31;;;;;;;5.20;3.38;;;;;;;;;;5018916;28;20018;-73
2022/10/25 12:33:00;;;;;;;8.15;3.80;;;;;;;;;;4992545;28;20457;-72
2022/10/25 12:35:28;;;;;;;7.28;4.05;;;;;;;;;;5015693;28;20023;-73
2022/10/25 12:38:00;;;;;;;7.78;3.45;;;;;;;;;;5010962;28;20352;-73
2022/10/25 12:40:28;;;;;;;5.20;3.53;;;;;;;;;;4995631;28;20080;-72
2022/10/25 12:42:59;;;;;;;6.90;3.30;;;;;;;;;;4991808;28;20043;-75
2022/10/25 12:45:31;;;;;;;9.25;3.63;;;;;;;;;;4997645;28;20030;-77
2022/10/25 12:48:09;;;;;;;7.53;3.30;;;;;;;;;;4985496;28;20082;-74
2022/10/25 12:50:51;;;;;;;6.00;3.75;;;;;;;;;;4992355;28;20022;-74
2022/10/25 12:53:31;;;;;;;7.45;3.88;;;;;;;;;;4989288;28;20475;-75
2022/10/25 12:56:01;;;;;;;98.88;49.80;;;;;;;;;;4989070;28;20025;-73
2022/10/25 12:58:49;;;;;;;9.85;4.72;;;;;;;;;;4993999;28;20053;-72
2022/10/25 13:01:30;;;;;;;7.43;4.13;;;;;;;;;;4989275;28;20058;-74
2022/10/25 13:04:09;;;;;;;9.57;4.00;;;;;;;;;;4992892;28;20025;-74
2022/10/25 13:06:37;;;;;;;11.23;4.78;;;;;;;;;;4986731;28;20662;-76
2022/10/25 13:09:23;;;;;;;14.70;5.68;;;;;;;;;;4988457;28;20056;-75
2022/10/25 13:11:56;;;;;;;11.10;5.45;;;;;;;;;;4986678;28;20062;-74
2022/10/25 13:14:30;;;;;;;7.10;4.75;;;;;;;;;;4996490;28;20392;-73
2022/10/25 13:17:15;;;;;;;10.93;5.45;;;;;;;;;;5002612;28;20128;-74
2022/10/25 13:19:41;;;;;;;10.48;4.65;;;;;;;;;;4994271;28;20038;-73
2022/10/25 13:22:30;;;;;;;11.50;5.18;;;;;;;;;;4992269;28;20044;-74
2022/10/25 13:24:58;;;;;;;7.70;4.85;;;;;;;;;;4995369;28;20168;-74
2022/10/25 13:27:24;;;;;;;14.55;6.75;;;;;;;;;;4996164;28;20081;-74
2022/10/25 13:29:50;;;;;;;11.27;6.50;;;;;;;;;;4984017;28;20034;-74
2022/10/25 13:32:19;;;;;;;17.63;7.38;;;;;;;;;;4994219;28;20044;-75
2022/10/25 13:34:46;;;;;;;20.02;7.13;;;;;;;;;;4997236;28;20038;-74
2022/10/25 13:37:31;;;;;;;17.15;8.80;;;;;;;;;;4999956;28;20029;-75
2022/10/25 13:40:08;;;;;;;10.40;6.65;;;;;;;;;;4987661;28;20043;-74
2022/10/25 13:42:36;;;;;;;11.35;6.55;;;;;;;;;;4995127;28;20037;-73
2022/10/25 13:45:06;;;;;;;17.90;6.78;;;;;;;;;;4995332;28;20021;-74
2022/10/25 13:47:43;;;;;;;10.65;5.80;;;;;;;;;;4999993;28;20033;-75
2022/10/25 13:50:14;;;;;;;9.90;6.15;;;;;;;;;;4993519;28;20041;-75
2022/10/25 13:53:03;;;;;;;9.93;6.20;;;;;;;;;;4996670;28;20041;-76
2022/10/25 13:55:33;;;;;;;14.52;6.18;;;;;;;;;;4933303;29;20039;-75
2022/10/25 13:58:00;;;;;;;10.50;6.00;;;;;;;;;;4917770;29;20383;-75
2022/10/25 14:00:38;;;;;;;10.68;6.60;;;;;;;;;;4930515;29;20046;-74
2022/10/25 14:03:04;;;;;;;15.13;6.90;;;;;;;;;;4931121;29;20042;-74
2022/10/25 14:05:48;;;;;;;12.68;7.00;;;;;;;;;;4931229;29;20102;-75
2022/10/25 14:08:21;;;;;;;10.85;6.47;;;;;;;;;;4930815;29;20191;-75
2022/10/25 14:10:47;;;;;;;15.15;6.55;;;;;;;;;;4924111;29;20027;-74
2022/10/25 14:13:25;;;;;;;10.68;6.72;;;;;;;;;;4923540;29;20106;-74
2022/10/25 14:16:00;;;;;;;9.60;6.70;;;;;;;;;;4928096;29;20031;-75
2022/10/25 14:18:28;;;;;;;12.63;6.25;;;;;;;;;;4932036;29;20039;-75
2022/10/25 14:20:56;;;;;;;6.93;5.40;;;;;;;;;;4928353;29;20120;-75
2022/10/25 14:23:23;;;;;;;13.32;6.57;;;;;;;;;;4930613;29;20036;-74
2022/10/25 14:25:56;;;;;;;10.80;5.90;;;;;;;;;;4930737;29;20079;-75
2022/10/25 14:28:30;;;;;;;12.18;6.38;;;;;;;;;;4930333;29;20524;-74
2022/10/25 14:30:56;;;;;;;;;;;;;;;;;;4932522;29;20028;-74
2022/10/25 14:33:23;;;;;;;12.48;6.43;;;;;;;;;;4963879;28;20327;-74
2022/10/25 14:35:51;;;;;;;9.82;6.90;;;;;;;;;;4984849;28;20030;-74
2022/10/25 14:38:21;;;;;;;9.77;6.05;;;;;;;;;;4984052;28;20818;-74
2022/10/25 14:40:54;;;;;;;10.18;7.40;;;;;;;;;;4982311;28;20030;-75
2022/10/25 14:43:22;;;;;;;10.25;6.40;;;;;;;;;;4987666;28;20033;-74
2022/10/25 14:45:55;;;;;;;12.73;6.88;;;;;;;;;;4969855;28;20027;-74
2022/10/25 14:48:21;;;;;;;12.73;7.22;;;;;;;;;;4989101;28;20049;-74